Time;durP1;ratioP1;P1;durP2;ratioP2;P2;SDS_P1;SDS_P2;PMS_P1;PMS_P2;Temp;Humidity;BMP_temperature;BMP_pressure;BME280_temperature;BME280_humidity;BME280_pressure;Samples;Min_cycle;Max_cycle;Signal;HPM_P1;HPM_P2
2023/04/20 00:00:28;;;;;;;4.75;2.60;;;14.50;55.70;;;;;;5012727;28;20038;-65
2023/04/20 00:02:53;;;;;;;4.93;3.40;;;14.50;56.10;;;;;;5012616;28;20079;-65
2023/04/20 00:05:19;;;;;;;4.50;2.70;;;14.40;55.60;;;;;;5011591;28;20049;-66
2023/04/20 00:07:44;;;;;;;4.43;2.95;;;14.30;55.80;;;;;;5012807;28;20057;-66
2023/04/20 00:10:10;;;;;;;4.78;2.72;;;14.20;55.90;;;;;;5012485;28;20030;-66
2023/04/20 00:12:35;;;;;;;4.95;3.13;;;14.10;56.30;;;;;;5012825;28;20026;-66
2023/04/20 00:15:01;;;;;;;5.30;3.15;;;14.10;56.20;;;;;;5012574;28;20467;-66
2023/04/20 00:17:27;;;;;;;7.82;2.75;;;14.20;56.80;;;;;;5012657;28;20030;-67
2023/04/20 00:19:52;;;;;;;4.82;2.92;;;14.20;56.20;;;;;;5012564;28;20157;-64
2023/04/20 00:22:18;;;;;;;5.93;3.17;;;14.40;56.30;;;;;;5012756;28;20057;-65
2023/04/20 00:24:43;;;;;;;4.97;3.17;;;14.40;55.70;;;;;;5012347;28;20064;-65
2023/04/20 00:27:10;;;;;;;11.00;3.15;;;14.40;55.80;;;;;;5012376;28;20084;-65
2023/04/20 00:29:36;;;;;;;7.20;2.92;;;14.40;55.80;;;;;;5012653;28;20104;-66
2023/04/20 00:32:01;;;;;;;4.95;2.88;;;14.40;55.90;;;;;;5016596;28;20106;-66
2023/04/20 00:34:27;;;;;;;8.93;3.20;;;14.50;55.50;;;;;;5016269;28;20414;-67
2023/04/20 00:36:52;;;;;;;4.00;3.20;;;14.40;55.20;;;;;;5016159;28;20414;-65
2023/04/20 00:39:18;;;;;;;7.25;2.85;;;14.20;55.40;;;;;;5015923;28;20029;-65
2023/04/20 00:41:43;;;;;;;5.18;2.65;;;14.20;55.10;;;;;;5016319;28;20518;-66
2023/04/20 00:44:12;;;;;;;4.75;3.00;;;14.20;55.50;;;;;;5016285;28;20112;-65
2023/04/20 00:46:38;;;;;;;5.95;2.72;;;14.10;55.40;;;;;;5016264;28;20030;-65
2023/04/20 00:49:05;;;;;;;5.00;3.03;;;14.20;55.70;;;;;;5016226;28;20517;-66
2023/04/20 00:51:31;;;;;;;3.72;2.78;;;14.10;55.60;;;;;;5016119;28;20025;-65
2023/04/20 00:53:57;;;;;;;6.28;2.75;;;14.00;55.40;;;;;;5016050;28;20022;-65
2023/04/20 00:56:22;;;;;;;5.28;3.00;;;14.20;55.40;;;;;;5016064;28;20130;-65
2023/04/20 00:58:48;;;;;;;4.43;2.97;;;14.10;55.10;;;;;;5016152;28;20021;-66
2023/04/20 01:01:16;;;;;;;5.00;2.80;;;14.20;55.10;;;;;;5015620;28;20073;-65
2023/04/20 01:03:43;;;;;;;4.47;2.83;;;14.10;54.70;;;;;;5016176;28;20026;-65
2023/04/20 01:06:09;;;;;;;7.65;3.05;;;14.00;55.00;;;;;;5014119;28;20018;-65
2023/04/20 01:08:43;;;;;;;5.22;2.60;;;14.10;55.10;;;;;;5015387;28;20036;-64
2023/04/20 01:11:09;;;;;;;4.25;2.55;;;14.10;54.70;;;;;;5015804;28;20098;-66
2023/04/20 01:13:34;;;;;;;6.53;3.08;;;14.10;54.60;;;;;;5015821;28;20089;-66
2023/04/20 01:16:00;;;;;;;5.93;2.90;;;14.20;54.60;;;;;;5015708;28;20097;-65
2023/04/20 01:18:25;;;;;;;7.25;2.95;;;14.10;54.70;;;;;;5015459;28;20486;-66
2023/04/20 01:20:51;;;;;;;3.90;2.33;;;14.10;54.50;;;;;;5015228;28;20092;-65
2023/04/20 01:23:16;;;;;;;7.20;2.80;;;14.10;54.50;;;;;;5015280;28;20022;-65
2023/04/20 01:25:42;;;;;;;6.30;2.85;;;14.10;54.60;;;;;;5015619;28;20057;-65
2023/04/20 01:28:08;;;;;;;7.68;2.80;;;14.20;56.20;;;;;;5015323;28;20045;-65
2023/04/20 01:30:34;;;;;;;7.05;2.35;;;14.10;54.40;;;;;;5015976;28;20036;-65
2023/04/20 01:32:59;;;;;;;2.95;2.40;;;14.10;53.90;;;;;;5015383;28;20112;-66
2023/04/20 01:35:25;;;;;;;7.00;2.42;;;14.00;54.00;;;;;;5015819;28;20072;-65
2023/04/20 01:37:50;;;;;;;7.55;2.78;;;14.00;54.00;;;;;;5015063;28;20483;-66
2023/04/20 01:40:16;;;;;;;3.97;2.70;;;14.00;54.10;;;;;;5015149;28;20380;-65
2023/04/20 01:42:41;;;;;;;5.28;2.60;;;13.90;54.10;;;;;;5013948;28;20025;-66
2023/04/20 01:45:07;;;;;;;4.53;2.85;;;13.90;53.80;;;;;;5015210;28;20026;-65
2023/04/20 01:47:33;;;;;;;4.22;2.58;;;14.00;53.80;;;;;;5015031;28;20022;-65
2023/04/20 01:49:59;;;;;;;4.60;2.70;;;14.00;54.20;;;;;;5015155;28;20026;-65
2023/04/20 01:52:24;;;;;;;4.55;2.90;;;14.10;54.20;;;;;;5014691;28;20050;-67
2023/04/20 01:54:50;;;;;;;4.68;3.13;;;14.00;53.90;;;;;;5014877;28;20530;-66
2023/04/20 01:57:15;;;;;;;3.75;2.75;;;14.00;55.10;;;;;;5014968;28;20030;-67
2023/04/20 01:59:41;;;;;;;4.20;2.58;;;14.00;54.70;;;;;;5014911;28;20025;-65
2023/04/20 02:02:07;;;;;;;6.35;2.42;;;14.00;55.10;;;;;;5015045;28;20459;-65
2023/04/20 02:04:32;;;;;;;6.88;3.00;;;14.00;54.90;;;;;;5014792;28;20044;-66
2023/04/20 02:06:58;;;;;;;5.53;2.78;;;14.00;55.10;;;;;;5014401;28;20033;-65
2023/04/20 02:09:23;;;;;;;3.55;2.72;;;14.00;55.30;;;;;;5014484;28;20030;-66
2023/04/20 02:11:49;;;;;;;4.32;2.65;;;14.00;55.30;;;;;;5013426;28;20076;-66
2023/04/20 02:14:14;;;;;;;8.07;3.03;;;14.00;55.60;;;;;;5014597;28;20022;-66
2023/04/20 02:16:41;;;;;;;6.95;3.08;;;13.90;55.50;;;;;;5014695;28;20080;-65
2023/04/20 02:19:06;;;;;;;10.38;2.92;;;13.90;55.90;;;;;;5014549;28;20065;-67
2023/04/20 02:21:32;;;;;;;8.38;2.78;;;13.90;55.50;;;;;;5014173;28;20065;-65
2023/04/20 02:23:58;;;;;;;4.53;2.53;;;13.80;55.90;;;;;;5014221;28;20525;-65
2023/04/20 02:26:23;;;;;;;5.30;3.00;;;13.90;56.30;;;;;;5014409;28;20022;-66
2023/04/20 02:28:48;;;;;;;6.07;2.70;;;13.90;55.80;;;;;;5014440;28;20025;-65
2023/04/20 02:31:14;;;;;;;9.68;2.95;;;13.90;56.40;;;;;;5014314;28;20383;-65
2023/04/20 02:33:40;;;;;;;5.63;2.72;;;13.80;55.80;;;;;;5014141;28;20026;-65
2023/04/20 02:36:05;;;;;;;5.15;2.78;;;13.80;56.50;;;;;;5013926;28;20030;-66
2023/04/20 02:38:31;;;;;;;6.18;3.33;;;13.80;56.30;;;;;;5014006;28;20105;-65
2023/04/20 02:40:57;;;;;;;6.13;2.95;;;13.70;56.80;;;;;;5014208;28;20483;-65
2023/04/20 02:43:22;;;;;;;6.97;3.22;;;13.70;57.20;;;;;;5013950;28;20026;-65
2023/04/20 02:45:48;;;;;;;6.18;2.97;;;13.80;57.00;;;;;;5014195;28;20029;-65
2023/04/20 02:48:13;;;;;;;5.55;2.75;;;13.80;56.90;;;;;;5013812;28;20030;-65
2023/04/20 02:50:41;;;;;;;4.50;2.58;;;13.70;56.90;;;;;;5013718;28;20030;-66
2023/04/20 02:53:06;;;;;;;7.80;3.13;;;13.70;57.00;;;;;;5013617;28;20022;-65
2023/04/20 02:55:32;;;;;;;6.07;3.10;;;13.70;57.20;;;;;;5013706;28;20033;-66
2023/04/20 02:57:57;;;;;;;9.20;2.60;;;13.60;56.80;;;;;;5013757;28;20037;-65
2023/04/20 03:00:23;;;;;;;6.75;2.75;;;13.60;57.10;;;;;;5013789;28;20037;-65
2023/04/20 03:02:49;;;;;;;6.38;2.65;;;13.70;57.40;;;;;;5013541;28;20537;-67
2023/04/20 03:05:15;;;;;;;4.28;2.65;;;13.60;57.50;;;;;;5013480;28;20030;-65
2023/04/20 03:07:40;;;;;;;5.93;2.80;;;13.60;56.80;;;;;;5013793;28;20080;-65
2023/04/20 03:10:07;;;;;;;3.85;2.22;;;13.60;57.00;;;;;;5013482;28;20074;-66
2023/04/20 03:12:32;;;;;;;5.97;2.85;;;13.60;56.90;;;;;;5013606;28;20057;-65
2023/04/20 03:14:58;;;;;;;6.47;2.47;;;13.50;57.20;;;;;;5013545;28;20061;-66
2023/04/20 03:17:23;;;;;;;4.22;2.70;;;13.50;57.30;;;;;;5013496;28;20112;-65
2023/04/20 03:19:49;;;;;;;5.28;2.88;;;13.40;57.10;;;;;;5013157;28;20026;-65
2023/04/20 03:22:18;;;;;;;5.05;2.80;;;13.50;56.40;;;;;;5013342;28;20030;-65
2023/04/20 03:24:43;;;;;;;7.78;2.88;;;13.50;56.90;;;;;;5013432;28;20102;-65
2023/04/20 03:27:09;;;;;;;3.63;2.53;;;13.40;56.90;;;;;;5013441;28;20104;-65
2023/04/20 03:29:34;;;;;;;4.28;2.80;;;13.30;57.60;;;;;;5013269;28;20040;-65
2023/04/20 03:32:00;;;;;;;6.95;2.70;;;13.30;57.70;;;;;;5013409;28;20109;-65
2023/04/20 03:34:25;;;;;;;5.35;2.55;;;13.30;57.70;;;;;;5012769;28;20152;-65
2023/04/20 03:36:52;;;;;;;2.67;2.13;;;13.30;58.30;;;;;;5013053;28;20025;-65
2023/04/20 03:39:17;;;;;;;5.25;2.45;;;13.20;58.40;;;;;;5013196;28;20037;-65
2023/04/20 03:41:43;;;;;;;3.53;2.33;;;13.20;58.80;;;;;;5013344;28;20034;-66
2023/04/20 03:44:09;;;;;;;4.53;2.50;;;13.10;59.10;;;;;;5013140;28;20026;-65
2023/04/20 03:46:35;;;;;;;4.82;2.60;;;13.10;60.30;;;;;;5012895;28;20041;-66
2023/04/20 03:49:00;;;;;;;4.95;3.10;;;13.10;60.20;;;;;;5012840;28;20381;-64
2023/04/20 03:51:26;;;;;;;4.55;2.72;;;13.10;59.70;;;;;;5012977;28;20482;-66
2023/04/20 03:53:51;;;;;;;5.30;2.88;;;13.10;60.00;;;;;;5012987;28;20176;-65
2023/04/20 03:56:17;;;;;;;6.10;3.17;;;13.10;59.40;;;;;;5013034;28;20076;-65
2023/04/20 03:58:42;;;;;;;6.05;2.70;;;13.10;59.40;;;;;;5012899;28;20025;-67
2023/04/20 04:01:12;;;;;;;5.25;2.47;;;13.10;59.80;;;;;;5012809;28;20038;-66
2023/04/20 04:03:37;;;;;;;4.55;3.10;;;13.20;60.00;;;;;;5012729;28;20018;-66
2023/04/20 04:06:03;;;;;;;3.97;2.80;;;13.10;59.90;;;;;;5012054;28;20030;-65
2023/04/20 04:08:30;;;;;;;4.75;3.20;;;13.10;60.10;;;;;;5012998;28;20108;-64
2023/04/20 04:10:56;;;;;;;7.22;2.97;;;13.10;59.80;;;;;;5012649;28;20022;-65
2023/04/20 04:13:21;;;;;;;3.88;3.10;;;13.10;60.20;;;;;;5012772;28;20026;-65
2023/04/20 04:15:47;;;;;;;8.88;3.00;;;13.10;60.20;;;;;;5012945;28;20513;-65
2023/04/20 04:18:12;;;;;;;7.95;2.92;;;13.10;60.40;;;;;;5012473;28;20479;-65
2023/04/20 04:20:38;;;;;;;5.53;3.10;;;13.10;60.50;;;;;;5011557;28;20437;-64
2023/04/20 04:23:04;;;;;;;4.82;2.58;;;13.10;60.80;;;;;;5012717;28;20026;-64
2023/04/20 04:25:29;;;;;;;7.88;3.03;;;13.00;61.10;;;;;;5012542;28;20100;-64
2023/04/20 04:27:55;;;;;;;4.47;2.85;;;13.10;61.60;;;;;;5012495;28;20152;-65
2023/04/20 04:30:20;;;;;;;6.38;2.90;;;13.10;61.90;;;;;;5012696;28;20128;-65
2023/04/20 04:32:47;;;;;;;5.15;3.00;;;13.20;62.00;;;;;;5012275;28;20072;-65
2023/04/20 04:35:13;;;;;;;6.53;3.00;;;13.10;62.20;;;;;;5010986;28;20437;-66
2023/04/20 04:37:38;;;;;;;4.07;2.67;;;13.20;62.30;;;;;;5012242;28;20444;-65
2023/04/20 04:40:07;;;;;;;3.97;2.75;;;13.20;65.30;;;;;;5012263;28;20422;-66
2023/04/20 04:42:36;;;;;;;6.25;2.55;;;13.20;65.50;;;;;;5012605;28;20026;-66
2023/04/20 04:45:03;;;;;;;6.00;2.78;;;13.30;67.00;;;;;;5012269;28;20105;-65
2023/04/20 04:47:35;;;;;;;6.13;2.67;;;13.30;66.00;;;;;;5012055;28;20093;-65
2023/04/20 04:50:02;;;;;;;3.47;2.40;;;13.30;66.10;;;;;;5012111;28;20026;-66
2023/04/20 04:52:27;;;;;;;4.18;2.60;;;13.40;65.70;;;;;;5012224;28;20406;-64
2023/04/20 04:54:53;;;;;;;3.78;2.70;;;13.40;65.70;;;;;;5007877;28;20077;-65
2023/04/20 04:57:18;;;;;;;5.57;2.88;;;13.50;65.00;;;;;;5011096;28;20517;-65
2023/04/20 04:59:44;;;;;;;5.85;2.90;;;13.50;65.80;;;;;;5010069;28;20462;-65
2023/04/20 05:02:10;;;;;;;3.95;2.40;;;13.50;65.30;;;;;;5012088;28;20026;-65
2023/04/20 05:04:35;;;;;;;3.88;2.58;;;13.50;65.50;;;;;;5012685;28;20510;-66
2023/04/20 05:07:01;;;;;;;2.78;1.98;;;13.50;65.50;;;;;;5010924;28;20111;-64
2023/04/20 05:09:32;;;;;;;4.40;2.22;;;13.50;66.30;;;;;;5012207;28;20097;-65
2023/04/20 05:11:59;;;;;;;4.55;2.22;;;13.50;66.20;;;;;;5012186;28;20525;-66
2023/04/20 05:14:25;;;;;;;6.15;2.85;;;13.60;65.20;;;;;;5012011;28;20068;-64
2023/04/20 05:16:51;;;;;;;8.02;2.20;;;13.60;65.30;;;;;;5012413;28;20112;-65
2023/04/20 05:19:16;;;;;;;3.58;2.33;;;13.60;65.70;;;;;;5009166;28;20053;-66
2023/04/20 05:21:42;;;;;;;6.10;2.80;;;13.60;66.50;;;;;;5006685;28;20033;-66
2023/04/20 05:24:07;;;;;;;6.72;2.72;;;13.60;64.70;;;;;;5012164;28;20026;-65
2023/04/20 05:26:33;;;;;;;8.45;2.92;;;13.60;65.40;;;;;;5014891;28;20048;-65
2023/04/20 05:28:59;;;;;;;9.70;2.95;;;13.60;66.00;;;;;;5012991;28;20040;-64
2023/04/20 05:31:25;;;;;;;3.75;2.05;;;13.60;65.80;;;;;;5015168;28;20032;-65
2023/04/20 05:33:50;;;;;;;4.20;2.28;;;13.60;65.90;;;;;;5014918;28;20113;-65
2023/04/20 05:36:16;;;;;;;10.45;3.08;;;13.70;65.40;;;;;;5014833;28;20033;-67
2023/04/20 05:38:41;;;;;;;10.27;3.50;;;13.70;65.90;;;;;;5015188;28;20482;-65
2023/04/20 05:41:07;;;;;;;7.47;3.20;;;13.70;65.60;;;;;;5012960;28;20048;-67
2023/04/20 05:43:32;;;;;;;11.68;3.38;;;13.70;66.00;;;;;;5008375;28;20036;-67
2023/04/20 05:45:58;;;;;;;9.73;3.53;;;13.70;65.60;;;;;;5006740;28;20468;-65
2023/04/20 05:48:26;;;;;;;4.15;2.40;;;13.60;66.80;;;;;;5009668;28;20032;-67
2023/04/20 05:50:52;;;;;;;5.97;2.80;;;13.60;67.20;;;;;;5008447;28;20022;-66
2023/04/20 05:53:18;;;;;;;5.93;2.70;;;13.70;66.50;;;;;;5009160;28;20110;-65
2023/04/20 05:55:43;;;;;;;8.70;2.50;;;13.70;67.00;;;;;;5013657;28;20116;-67
2023/04/20 05:58:10;;;;;;;4.95;3.17;;;13.70;66.60;;;;;;5007901;28;20015;-64
2023/04/20 06:00:36;;;;;;;4.35;2.47;;;13.70;66.30;;;;;;5009502;28;20038;-66
2023/04/20 06:03:02;;;;;;;6.05;2.70;;;13.80;66.10;;;;;;5011438;28;20033;-63
2023/04/20 06:05:27;;;;;;;5.85;2.97;;;13.80;66.70;;;;;;5017528;28;20072;-65
2023/04/20 06:07:53;;;;;;;8.55;3.28;;;13.90;66.50;;;;;;5019170;28;20064;-67
2023/04/20 06:10:18;;;;;;;4.20;2.92;;;13.90;66.10;;;;;;5005259;28;20058;-65
2023/04/20 06:12:44;;;;;;;4.32;3.00;;;13.90;65.80;;;;;;5010759;28;20060;-68
2023/04/20 06:15:10;;;;;;;4.95;3.00;;;13.80;65.90;;;;;;5008628;28;20030;-67
2023/04/20 06:17:39;;;;;;;5.03;3.15;;;13.80;66.80;;;;;;4996239;28;20030;-68
2023/04/20 06:20:06;;;;;;;8.15;3.13;;;13.70;66.70;;;;;;5010209;28;20046;-67
2023/04/20 06:22:32;;;;;;;8.90;3.65;;;13.70;66.70;;;;;;5013152;28;20022;-67
2023/04/20 06:24:59;;;;;;;6.50;2.92;;;13.70;67.10;;;;;;5009538;28;20371;-64
2023/04/20 06:27:25;;;;;;;7.57;3.15;;;13.70;67.20;;;;;;5007887;28;20056;-66
2023/04/20 06:29:50;;;;;;;5.00;3.15;;;13.70;67.40;;;;;;5013515;28;20029;-65
2023/04/20 06:32:16;;;;;;;7.60;2.83;;;13.70;67.40;;;;;;5014354;28;20467;-66
2023/04/20 06:34:42;;;;;;;5.07;2.72;;;13.70;67.20;;;;;;5014016;28;20068;-65
2023/04/20 06:37:08;;;;;;;9.82;3.40;;;13.50;67.00;;;;;;5013061;28;20034;-67
2023/04/20 06:39:34;;;;;;;6.53;3.28;;;13.40;67.30;;;;;;5013997;28;20018;-65
2023/04/20 06:42:01;;;;;;;4.78;3.03;;;13.10;68.20;;;;;;5005589;28;20050;-68
2023/04/20 06:44:27;;;;;;;6.28;3.20;;;12.80;69.40;;;;;;5004119;28;20109;-67
2023/04/20 06:46:52;;;;;;;7.32;3.35;;;12.80;69.90;;;;;;5009546;28;20109;-66
2023/04/20 06:49:18;;;;;;;6.03;3.70;;;12.80;69.70;;;;;;5013683;28;20030;-66
2023/04/20 06:51:43;;;;;;;9.60;3.17;;;12.80;70.20;;;;;;5013853;28;20077;-69
2023/04/20 06:54:09;;;;;;;4.88;3.60;;;12.90;70.40;;;;;;5013692;28;20534;-68
2023/04/20 06:56:34;;;;;;;8.73;3.40;;;12.90;70.40;;;;;;5010903;28;20383;-67
2023/04/20 06:59:00;;;;;;;11.50;2.92;;;13.00;70.80;;;;;;5009550;28;20101;-66
2023/04/20 07:01:25;;;;;;;7.20;3.40;;;13.00;70.50;;;;;;5007184;28;20077;-66
2023/04/20 07:03:51;;;;;;;7.50;2.85;;;12.80;70.60;;;;;;4998496;28;20108;-68
2023/04/20 07:06:17;;;;;;;6.25;3.30;;;12.90;71.00;;;;;;5003326;28;20045;-66
2023/04/20 07:08:42;;;;;;;7.93;3.78;;;12.90;71.00;;;;;;5002362;28;20033;-68
2023/04/20 07:11:08;;;;;;;7.00;3.42;;;12.90;71.00;;;;;;4996580;28;20506;-69
2023/04/20 07:13:33;;;;;;;7.72;3.05;;;13.10;70.90;;;;;;4995782;28;20038;-69
2023/04/20 07:15:59;;;;;;;5.78;3.20;;;13.20;70.90;;;;;;5006920;28;20061;-68
2023/04/20 07:18:24;;;;;;;5.60;3.10;;;13.00;70.80;;;;;;4998644;28;20030;-68
2023/04/20 07:20:51;;;;;;;6.30;3.45;;;13.00;71.10;;;;;;5004864;28;20062;-66
2023/04/20 07:23:16;;;;;;;10.65;3.70;;;13.00;71.50;;;;;;4995330;28;20026;-67
2023/04/20 07:25:42;;;;;;;8.02;3.42;;;13.10;71.20;;;;;;4993100;28;20022;-67
2023/04/20 07:28:08;;;;;;;8.10;3.22;;;13.10;71.20;;;;;;4994076;28;20042;-68
2023/04/20 07:30:33;;;;;;;7.55;3.65;;;13.20;71.10;;;;;;4994772;28;20077;-66
2023/04/20 07:32:59;;;;;;;7.95;3.67;;;13.20;71.20;;;;;;5002194;28;20492;-67
2023/04/20 07:35:24;;;;;;;6.35;3.38;;;13.30;71.30;;;;;;4999608;28;20038;-69
2023/04/20 07:37:50;;;;;;;4.75;3.05;;;13.30;71.10;;;;;;5011040;28;20042;-66
2023/04/20 07:40:15;;;;;;;5.53;3.22;;;13.30;71.10;;;;;;5000337;28;20476;-66
2023/04/20 07:42:41;;;;;;;4.85;3.28;;;13.30;71.20;;;;;;4993261;28;20026;-68
2023/04/20 07:45:09;;;;;;;7.28;3.72;;;13.30;71.50;;;;;;5003281;28;20018;-67
2023/04/20 07:47:35;;;;;;;4.13;3.30;;;13.30;71.80;;;;;;5001164;28;20034;-67
2023/04/20 07:50:02;;;;;;;5.53;3.28;;;13.40;71.90;;;;;;5001667;28;20022;-66
2023/04/20 07:52:28;;;;;;;5.65;3.47;;;13.50;71.70;;;;;;4993103;28;20023;-66
2023/04/20 07:54:55;;;;;;;7.82;3.35;;;13.50;71.60;;;;;;4992939;28;20033;-66
2023/04/20 07:57:21;;;;;;;9.35;3.30;;;13.50;71.50;;;;;;5001127;28;20088;-68
2023/04/20 07:59:46;;;;;;;5.88;3.67;;;13.50;71.80;;;;;;5008490;28;20029;-66
2023/04/20 08:02:12;;;;;;;9.02;3.75;;;13.60;71.80;;;;;;4992676;28;20034;-66
2023/04/20 08:04:38;;;;;;;7.65;3.72;;;13.60;71.90;;;;;;4999406;28;20372;-66
2023/04/20 08:07:03;;;;;;;4.30;3.13;;;13.60;72.10;;;;;;4996711;28;20031;-67
2023/04/20 08:09:29;;;;;;;8.20;3.92;;;13.60;72.30;;;;;;4993589;28;20019;-67
2023/04/20 08:11:55;;;;;;;6.22;3.22;;;13.60;72.00;;;;;;5006881;28;20119;-67
2023/04/20 08:14:22;;;;;;;6.25;3.40;;;13.60;71.90;;;;;;5002348;28;20475;-68
2023/04/20 08:16:47;;;;;;;6.53;3.38;;;13.60;72.00;;;;;;4998609;28;20040;-66
2023/04/20 08:19:13;;;;;;;6.13;3.58;;;13.60;72.10;;;;;;4999132;28;20343;-67
2023/04/20 08:21:39;;;;;;;5.50;3.17;;;13.60;72.20;;;;;;5003614;28;20038;-72
2023/04/20 08:24:06;;;;;;;5.55;3.67;;;13.60;71.90;;;;;;5010361;28;20108;-68
2023/04/20 08:26:32;;;;;;;8.13;4.03;;;13.60;71.70;;;;;;4995591;28;20044;-66
2023/04/20 08:28:59;;;;;;;5.63;3.30;;;13.70;72.00;;;;;;4997672;28;20464;-66
2023/04/20 08:31:24;;;;;;;9.05;3.58;;;13.70;72.30;;;;;;4995743;28;20022;-66
2023/04/20 08:33:50;;;;;;;8.40;4.32;;;13.70;72.20;;;;;;5001444;28;20018;-66
2023/04/20 08:36:16;;;;;;;7.78;3.45;;;13.70;72.10;;;;;;4992647;28;20038;-66
2023/04/20 08:38:42;;;;;;;5.18;3.75;;;13.80;72.60;;;;;;5001164;28;20026;-66
2023/04/20 08:41:07;;;;;;;8.60;3.90;;;13.60;71.30;;;;;;5004041;28;20049;-65
2023/04/20 08:43:33;;;;;;;6.53;3.67;;;13.60;71.70;;;;;;5000301;28;20026;-65
2023/04/20 08:46:01;;;;;;;6.07;4.10;;;13.70;72.60;;;;;;4995440;28;20074;-65
2023/04/20 08:48:34;;;;;;;5.70;4.10;;;13.80;72.70;;;;;;5003255;28;20025;-66
2023/04/20 08:51:04;;;;;;;8.63;3.78;;;13.80;73.50;;;;;;5018628;28;20378;-65
2023/04/20 08:53:30;;;;;;;9.02;3.90;;;13.80;71.80;;;;;;4999995;28;20041;-65
2023/04/20 08:55:56;;;;;;;8.10;4.05;;;13.70;72.00;;;;;;5006966;28;20028;-66
2023/04/20 08:58:32;;;;;;;6.88;3.90;;;13.60;71.70;;;;;;5003219;28;20046;-66
2023/04/20 09:01:01;;;;;;;4.32;3.58;;;13.40;71.70;;;;;;5006001;28;20439;-66
2023/04/20 09:03:33;;;;;;;7.95;3.97;;;13.40;71.60;;;;;;5000317;28;20014;-67
2023/04/20 09:05:59;;;;;;;;;;;13.40;72.70;;;;;;5006969;28;20036;-66
2023/04/20 09:08:39;;;;;;;5.60;3.75;;;13.40;72.20;;;;;;5001236;28;19914;-64
2023/04/20 09:11:05;;;;;;;5.40;3.92;;;13.50;72.70;;;;;;5004274;28;20153;-65
2023/04/20 09:13:31;;;;;;;5.60;3.50;;;13.50;72.20;;;;;;5014053;28;20430;-65
2023/04/20 09:15:56;;;;;;;5.68;3.85;;;13.60;72.20;;;;;;5012510;28;20013;-66
2023/04/20 09:18:23;;;;;;;6.38;3.67;;;13.50;71.30;;;;;;5013154;28;20033;-66
2023/04/20 09:20:49;;;;;;;8.40;3.33;;;13.40;71.40;;;;;;5015072;28;20113;-66
2023/04/20 09:23:16;;;;;;;6.45;4.10;;;13.50;72.90;;;;;;5015554;28;20112;-66
2023/04/20 09:25:44;;;;;;;5.65;3.45;;;13.70;72.00;;;;;;5013899;28;20080;-67
2023/04/20 09:28:12;;;;;;;8.85;3.38;;;13.80;71.70;;;;;;5012834;28;20113;-66
2023/04/20 09:30:45;;;;;;;5.85;3.78;;;13.90;71.40;;;;;;5015227;28;20064;-66
2023/04/20 09:33:13;;;;;;;5.15;3.80;;;14.00;71.40;;;;;;5015080;28;20065;-66
2023/04/20 09:35:40;;;;;;;8.13;2.88;;;13.80;71.00;;;;;;5011257;28;20034;-66
2023/04/20 09:38:13;;;;;;;6.38;3.25;;;13.90;71.90;;;;;;5009377;28;20023;-66
2023/04/20 09:40:39;;;;;;;5.15;3.40;;;13.90;70.90;;;;;;5013211;28;20022;-65
2023/04/20 09:43:26;;;;;;;8.98;3.58;;;13.80;70.90;;;;;;5012682;28;20076;-66
2023/04/20 09:45:53;;;;;;;4.25;3.60;;;13.80;70.70;;;;;;5013876;28;20037;-66
2023/04/20 09:48:20;;;;;;;11.63;3.83;;;13.60;70.60;;;;;;5012932;28;20115;-65
2023/04/20 09:50:46;;;;;;;4.65;3.13;;;13.50;70.70;;;;;;5010489;28;20029;-67
2023/04/20 09:53:15;;;;;;;4.95;3.42;;;13.50;72.00;;;;;;5014160;28;20506;-66
2023/04/20 09:55:48;;;;;;;7.18;3.58;;;13.60;70.50;;;;;;5011718;28;20026;-66
2023/04/20 09:58:16;;;;;;;5.40;3.60;;;13.70;70.50;;;;;;5010530;28;20025;-66
2023/04/20 10:00:42;;;;;;;4.80;3.72;;;13.70;70.60;;;;;;5011050;28;20030;-68
2023/04/20 10:03:09;;;;;;;6.63;3.67;;;13.70;70.70;;;;;;5015522;28;20148;-68
2023/04/20 10:05:38;;;;;;;8.90;4.13;;;13.70;70.60;;;;;;5014375;28;20033;-68
2023/04/20 10:08:04;;;;;;;5.00;3.70;;;13.70;70.50;;;;;;5014486;28;20184;-68
2023/04/20 10:10:30;;;;;;;4.55;3.40;;;13.80;70.60;;;;;;5014552;28;20033;-68
2023/04/20 10:13:02;;;;;;;7.72;3.58;;;13.70;70.90;;;;;;5018278;28;20427;-68
2023/04/20 10:15:41;;;;;;;5.80;3.73;;;13.70;71.00;;;;;;5013497;28;20029;-68
2023/04/20 10:18:22;;;;;;;6.13;3.50;;;13.70;70.50;;;;;;5002318;28;20804;-68
2023/04/20 10:20:48;;;;;;;6.35;3.95;;;13.90;70.40;;;;;;5013766;28;20065;-68
2023/04/20 10:23:15;;;;;;;6.07;3.95;;;13.90;70.60;;;;;;5011419;28;20030;-67
2023/04/20 10:25:41;;;;;;;5.20;4.00;;;13.90;70.60;;;;;;5001417;28;20018;-67
2023/04/20 10:28:09;;;;;;;6.03;3.88;;;13.90;70.70;;;;;;5013059;28;20467;-67
2023/04/20 10:30:36;;;;;;;4.72;4.05;;;13.90;70.80;;;;;;5013495;28;20080;-67
2023/04/20 10:33:06;;;;;;;5.78;4.55;;;13.80;70.70;;;;;;5013980;28;20030;-67
2023/04/20 10:35:46;;;;;;;6.57;4.10;;;13.80;71.00;;;;;;5012950;28;20395;-67
2023/04/20 10:38:12;;;;;;;9.07;4.00;;;14.00;70.70;;;;;;5013623;28;20029;-67
2023/04/20 10:40:38;;;;;;;7.72;3.80;;;13.90;70.40;;;;;;5010255;28;20038;-66
2023/04/20 10:43:16;;;;;;;6.53;4.10;;;14.00;70.30;;;;;;5010668;28;20119;-66
2023/04/20 10:45:42;;;;;;;4.88;3.30;;;14.10;70.70;;;;;;5012437;28;20515;-66
2023/04/20 10:48:10;;;;;;;6.05;2.92;;;13.80;70.10;;;;;;5011125;28;20030;-66
2023/04/20 10:50:36;;;;;;;3.58;2.92;;;13.80;69.80;;;;;;5011835;28;20029;-67
2023/04/20 10:53:06;;;;;;;3.92;2.63;;;13.70;70.00;;;;;;5013336;28;20034;-67
2023/04/20 10:55:33;;;;;;;4.00;2.70;;;13.80;69.70;;;;;;5012182;28;20058;-66
2023/04/20 10:57:58;;;;;;;5.05;2.83;;;13.80;69.80;;;;;;5013005;28;20545;-66
2023/04/20 11:00:26;;;;;;;4.65;3.00;;;13.80;69.40;;;;;;5010999;28;20057;-66
2023/04/20 11:02:56;;;;;;;3.55;3.20;;;13.90;69.30;;;;;;5010821;28;20487;-67
2023/04/20 11:05:24;;;;;;;5.30;3.08;;;13.70;69.30;;;;;;5009460;28;20029;-66
2023/04/20 11:07:52;;;;;;;4.80;2.30;;;13.70;69.60;;;;;;5013725;28;20030;-67
2023/04/20 11:10:18;;;;;;;3.60;2.60;;;13.70;70.00;;;;;;5011501;28;21421;-68
2023/04/20 11:12:44;;;;;;;4.70;3.03;;;13.90;70.00;;;;;;5010838;28;20025;-68
2023/04/20 11:15:10;;;;;;;3.63;2.53;;;14.00;69.60;;;;;;5008975;28;20034;-67
2023/04/20 11:17:36;;;;;;;5.97;2.70;;;14.00;69.00;;;;;;5010532;28;20025;-67
2023/04/20 11:20:13;;;;;;;3.38;2.70;;;14.20;69.40;;;;;;5012885;28;20040;-67
2023/04/20 11:22:39;;;;;;;6.80;2.58;;;14.20;68.70;;;;;;5011688;28;20022;-65
2023/04/20 11:25:07;;;;;;;4.82;2.58;;;14.20;68.80;;;;;;5011763;28;20030;-64
2023/04/20 11:27:34;;;;;;;8.73;2.50;;;14.10;69.60;;;;;;5011678;28;20489;-64
2023/04/20 11:30:04;;;;;;;3.72;2.70;;;14.20;68.90;;;;;;5011921;28;20026;-65
2023/04/20 11:32:31;;;;;;;4.28;2.75;;;14.30;68.60;;;;;;5003734;28;20482;-64
2023/04/20 11:35:06;;;;;;;4.88;2.90;;;14.20;68.80;;;;;;5012156;28;20068;-65
2023/04/20 11:37:32;;;;;;;3.63;3.00;;;14.30;69.00;;;;;;5013261;28;20037;-65
2023/04/20 11:40:08;;;;;;;4.38;3.30;;;14.40;68.90;;;;;;5013093;28;20026;-64
2023/04/20 11:42:37;;;;;;;4.05;2.80;;;14.40;69.20;;;;;;5005009;28;20537;-65
2023/04/20 11:45:04;;;;;;;10.15;3.42;;;14.40;69.80;;;;;;5006883;28;20025;-66
2023/04/20 11:47:29;;;;;;;5.07;2.97;;;14.50;69.40;;;;;;5005958;28;20367;-65
2023/04/20 11:49:55;;;;;;;5.57;3.13;;;14.50;69.60;;;;;;5008981;28;20407;-65
2023/04/20 11:52:21;;;;;;;4.80;2.50;;;14.60;69.60;;;;;;5010575;28;20038;-66
2023/04/20 11:54:46;;;;;;;6.10;3.08;;;14.60;69.90;;;;;;5009326;28;20038;-66
2023/04/20 11:57:12;;;;;;;3.83;2.72;;;14.60;69.60;;;;;;5011858;28;20745;-65
2023/04/20 11:59:38;;;;;;;5.32;2.83;;;14.60;69.40;;;;;;5012310;28;20057;-67
2023/04/20 12:02:04;;;;;;;4.70;3.22;;;14.60;69.40;;;;;;5010073;28;20030;-66
2023/04/20 12:04:30;;;;;;;5.18;2.85;;;14.60;69.70;;;;;;5012836;28;20063;-66
2023/04/20 12:07:00;;;;;;;3.92;2.78;;;14.60;69.80;;;;;;5005520;28;20061;-67
2023/04/20 12:09:27;;;;;;;17.50;4.55;;;14.60;70.00;;;;;;5012659;28;20030;-67
2023/04/20 12:11:52;;;;;;;8.10;2.78;;;14.70;70.20;;;;;;5010466;28;20034;-66
2023/04/20 12:14:18;;;;;;;5.70;3.15;;;14.70;70.60;;;;;;5009881;28;20078;-65
2023/04/20 12:16:44;;;;;;;3.83;2.53;;;14.70;70.20;;;;;;5007523;28;20029;-66
2023/04/20 12:19:10;;;;;;;4.78;3.35;;;14.70;69.90;;;;;;5019100;28;20119;-65
2023/04/20 12:21:35;;;;;;;6.63;3.65;;;14.80;70.00;;;;;;5012373;28;20045;-66
2023/04/20 12:24:01;;;;;;;6.38;2.60;;;14.80;70.30;;;;;;5011059;28;20490;-67
2023/04/20 12:26:27;;;;;;;4.15;2.67;;;14.80;69.50;;;;;;5006576;28;20068;-66
2023/04/20 12:28:52;;;;;;;6.80;2.72;;;14.80;69.20;;;;;;5017569;28;20025;-66
2023/04/20 12:31:18;;;;;;;4.47;2.40;;;14.80;68.60;;;;;;5024320;28;20100;-65
2023/04/20 12:33:44;;;;;;;3.92;2.50;;;14.80;68.90;;;;;;5022877;28;20161;-67
2023/04/20 12:36:09;;;;;;;9.32;2.60;;;14.80;68.80;;;;;;5023007;28;20030;-65
2023/04/20 12:38:35;;;;;;;4.38;2.60;;;14.80;68.50;;;;;;5016811;28;20033;-65
2023/04/20 12:41:01;;;;;;;4.15;2.63;;;14.80;68.50;;;;;;5023454;28;20120;-65
2023/04/20 12:43:27;;;;;;;3.60;2.38;;;14.80;68.20;;;;;;5018009;28;20471;-66